createdAt,value
2022-08-17T00:03:17.207Z,8.43
2022-08-17T00:06:42.047Z,9.05
2022-08-17T00:10:07.024Z,8.18
2022-08-17T00:13:41.047Z,9.77
2022-08-17T00:17:05.053Z,7.93
2022-08-17T00:20:30.557Z,8.85
2022-08-17T00:23:57.048Z,8.55
2022-08-17T00:27:18.050Z,8.85
2022-08-17T00:30:50.970Z,9.18
2022-08-17T00:34:12.062Z,9.35
2022-08-17T00:37:33.052Z,8.68
2022-08-17T00:40:59.465Z,9.52
2022-08-17T00:44:20.073Z,8.70
2022-08-17T00:47:41.044Z,8.00
2022-08-17T00:51:17.051Z,8.63
2022-08-17T00:54:51.057Z,9.70
2022-08-17T00:58:15.058Z,8.90
2022-08-17T01:01:36.110Z,8.73
2022-08-17T01:05:00.102Z,7.95
2022-08-17T01:08:26.070Z,9.32
2022-08-17T01:11:47.067Z,9.45
2022-08-17T01:15:08.066Z,8.55
2022-08-17T01:18:29.053Z,8.52
2022-08-17T01:22:14.048Z,10.10
2022-08-17T01:25:36.073Z,10.98
2022-08-17T01:28:57.059Z,10.88
2022-08-17T01:32:20.069Z,10.20
2022-08-17T01:35:41.059Z,10.15
2022-08-17T01:39:02.080Z,9.20
2022-08-17T01:42:36.041Z,10.30
2022-08-17T01:46:02.706Z,9.88
2022-08-17T01:49:26.096Z,9.50
2022-08-17T01:52:47.158Z,8.90
2022-08-17T01:56:12.092Z,10.00
2022-08-17T01:59:34.059Z,9.40
2022-08-17T02:02:55.099Z,8.82
2022-08-17T02:06:27.721Z,8.18
2022-08-17T02:09:52.799Z,9.35
2022-08-17T02:13:15.109Z,8.73
2022-08-17T02:16:38.229Z,8.13
2022-08-17T02:19:59.073Z,8.07
2022-08-17T02:23:21.082Z,9.27
2022-08-17T02:26:42.068Z,8.68
2022-08-17T02:30:03.100Z,7.90
2022-08-17T02:33:24.079Z,7.35
2022-08-17T02:37:03.095Z,7.20
2022-08-17T02:40:36.308Z,7.57
2022-08-17T02:44:03.097Z,8.27
2022-08-17T02:47:18.086Z,7.68
2022-08-17T02:50:39.128Z,8.38
2022-08-17T02:54:02.210Z,7.38
2022-08-17T02:57:34.092Z,7.07
2022-08-17T03:00:57.085Z,7.07
2022-08-17T03:04:18.102Z,7.22
2022-08-17T03:07:39.108Z,7.90
2022-08-17T03:11:00.091Z,7.50
2022-08-17T03:14:21.106Z,7.22
2022-08-17T03:17:47.097Z,8.43
2022-08-17T03:21:11.112Z,7.55
2022-08-17T03:24:32.112Z,8.00
2022-08-17T03:27:53.127Z,8.40
2022-08-17T03:31:14.104Z,7.85
2022-08-17T03:34:35.128Z,9.27
2022-08-17T03:38:00.277Z,9.18
2022-08-17T03:41:22.138Z,9.35
2022-08-17T03:44:43.122Z,10.45
2022-08-17T03:48:16.133Z,10.75
2022-08-17T03:51:56.116Z,11.52
2022-08-17T03:55:36.205Z,11.88
2022-08-17T03:58:57.110Z,13.27
2022-08-17T04:02:50.257Z,13.43
2022-08-17T04:06:11.178Z,13.88
2022-08-17T04:09:32.117Z,15.30
2022-08-17T04:12:58.134Z,15.40
2022-08-17T04:16:19.136Z,15.20
2022-08-17T04:19:40.146Z,17.83
2022-08-17T04:23:21.128Z,18.70
2022-08-17T04:26:53.923Z,18.50
2022-08-17T04:30:16.128Z,20.70
2022-08-17T04:33:40.129Z,19.83
2022-08-17T04:37:01.134Z,19.98
2022-08-17T04:40:40.131Z,19.40
2022-08-17T04:44:05.136Z,20.23
2022-08-17T04:47:26.126Z,20.17
2022-08-17T04:50:54.124Z,20.05
2022-08-17T04:54:27.128Z,20.20
2022-08-17T04:57:48.123Z,21.50
2022-08-17T05:01:09.163Z,21.75
2022-08-17T05:04:34.422Z,21.77
2022-08-17T05:07:56.128Z,21.38
2022-08-17T05:11:17.161Z,20.73
2022-08-17T05:14:38.136Z,20.95
2022-08-17T05:17:59.147Z,20.40
2022-08-17T05:21:20.144Z,22.00
2022-08-17T05:24:43.323Z,19.92
2022-08-17T05:28:14.141Z,20.98
2022-08-17T05:31:37.146Z,21.90
2022-08-17T05:34:58.137Z,20.10
2022-08-17T05:38:20.151Z,21.15
2022-08-17T05:41:41.139Z,19.40
2022-08-17T05:45:02.177Z,16.85
2022-08-17T05:48:35.479Z,17.23
2022-08-17T05:52:25.150Z,15.15
2022-08-17T05:55:54.167Z,16.85
2022-08-17T05:59:42.157Z,15.27
2022-08-17T06:03:40.167Z,15.98
2022-08-17T06:07:12.160Z,13.55
2022-08-17T06:10:45.202Z,13.20
2022-08-17T06:14:22.159Z,14.45
2022-08-17T06:17:43.224Z,14.55
2022-08-17T06:21:10.190Z,12.40
2022-08-17T06:24:46.169Z,12.68
2022-08-17T06:28:16.156Z,12.43
2022-08-17T06:31:45.180Z,12.38
2022-08-17T06:35:07.161Z,10.82
2022-08-17T06:38:39.234Z,11.20
2022-08-17T06:42:55.126Z,9.93
2022-08-17T06:46:24.172Z,9.98
2022-08-17T06:50:03.200Z,10.68
2022-08-17T06:53:40.183Z,11.13
2022-08-17T06:57:32.170Z,10.60
2022-08-17T07:00:59.293Z,9.57
2022-08-17T07:07:58.199Z,10.82
2022-08-17T07:11:27.210Z,8.63
2022-08-17T07:15:02.235Z,7.65
2022-08-17T07:18:23.196Z,8.25
2022-08-17T07:21:51.205Z,7.78
2022-08-17T07:25:16.210Z,7.70
2022-08-17T07:28:43.213Z,7.55
2022-08-17T07:32:04.180Z,7.13
2022-08-17T07:35:37.826Z,7.65
2022-08-17T07:39:10.185Z,6.57
2022-08-17T07:42:31.199Z,7.28
2022-08-17T07:46:52.208Z,6.75
2022-08-17T07:50:15.208Z,6.68
2022-08-17T07:53:39.179Z,6.13
2022-08-17T07:57:29.911Z,6.43
2022-08-17T08:00:51.204Z,6.53
2022-08-17T08:04:16.333Z,6.68
2022-08-17T08:07:38.313Z,6.32
2022-08-17T08:11:12.218Z,5.80
2022-08-17T08:14:41.261Z,5.88
2022-08-17T08:18:10.177Z,5.40
2022-08-17T08:21:57.258Z,5.13
2022-08-17T08:25:56.223Z,5.43
2022-08-17T08:29:51.236Z,5.07
2022-08-17T08:33:45.221Z,4.38
2022-08-17T08:37:49.292Z,4.30
2022-08-17T08:41:21.218Z,4.78
2022-08-17T08:45:03.875Z,4.47
2022-08-17T08:48:53.692Z,4.68
2022-08-17T08:52:42.218Z,4.47
2022-08-17T08:56:06.240Z,4.05
2022-08-17T08:59:58.202Z,4.13
2022-08-17T09:03:37.632Z,3.65
2022-08-17T09:07:31.260Z,3.95
2022-08-17T09:11:06.205Z,3.67
2022-08-17T09:15:16.235Z,4.10
2022-08-17T09:22:31.247Z,4.05
2022-08-17T09:26:44.236Z,4.47
2022-08-17T09:30:13.237Z,4.00
2022-08-17T09:33:38.218Z,4.28
2022-08-17T09:37:12.210Z,4.38
2022-08-17T09:41:12.230Z,3.88
2022-08-17T09:45:17.268Z,4.18
2022-08-17T09:49:02.242Z,3.85
2022-08-17T09:52:39.240Z,5.38
2022-08-17T09:59:45.241Z,3.65
2022-08-17T10:03:27.223Z,4.40
2022-08-17T10:07:08.259Z,4.13
2022-08-17T10:10:36.236Z,4.32
2022-08-17T10:14:36.950Z,4.28
2022-08-17T10:18:08.242Z,4.93
2022-08-17T10:21:50.249Z,3.90
2022-08-17T10:25:56.472Z,4.05
2022-08-17T10:29:26.275Z,4.30
2022-08-17T10:33:01.314Z,4.18
2022-08-17T10:36:59.256Z,5.40
2022-08-17T10:40:39.268Z,6.13
2022-08-17T10:44:37.209Z,4.70
2022-08-17T10:48:13.648Z,3.90
2022-08-17T10:51:55.264Z,5.18
2022-08-17T10:55:22.236Z,4.50
2022-08-17T10:58:52.250Z,5.70
2022-08-17T11:02:35.235Z,6.18
2022-08-17T11:06:22.263Z,5.22
2022-08-17T11:10:02.253Z,6.90
2022-08-17T11:13:55.265Z,6.07
2022-08-17T11:18:08.258Z,5.53
2022-08-17T11:21:57.242Z,5.38
2022-08-17T11:25:45.268Z,5.28
2022-08-17T11:29:12.282Z,6.03
2022-08-17T11:32:59.247Z,5.57
2022-08-17T11:36:37.268Z,6.32
2022-08-17T11:40:11.365Z,6.72
2022-08-17T11:44:02.274Z,7.00
2022-08-17T11:48:25.917Z,5.20
2022-08-17T11:52:14.273Z,4.80
2022-08-17T11:56:10.292Z,4.70
2022-08-17T11:59:47.280Z,6.40
2022-08-17T12:03:33.404Z,5.35
2022-08-17T12:07:01.262Z,5.55
2022-08-17T12:10:43.310Z,5.75
2022-08-17T12:14:11.642Z,5.95
2022-08-17T12:17:42.352Z,5.70
2022-08-17T12:21:42.326Z,5.72
2022-08-17T12:25:11.281Z,5.90
2022-08-17T12:28:44.290Z,5.50
2022-08-17T12:32:08.373Z,6.50
2022-08-17T12:35:43.270Z,6.32
2022-08-17T12:39:14.754Z,7.72
2022-08-17T12:42:51.292Z,7.13
2022-08-17T12:46:13.310Z,7.35
2022-08-17T12:49:46.295Z,7.50
2022-08-17T12:53:07.279Z,6.53
2022-08-17T12:56:28.277Z,7.38
2022-08-17T12:59:55.302Z,7.90
2022-08-17T13:03:20.288Z,7.47
2022-08-17T13:06:46.305Z,9.02
2022-08-17T13:10:07.298Z,7.40
2022-08-17T13:13:38.304Z,8.02
2022-08-17T13:17:13.571Z,7.15
2022-08-17T13:20:34.321Z,6.97
2022-08-17T13:23:55.317Z,6.78
2022-08-17T13:27:16.313Z,6.20
2022-08-17T13:30:41.289Z,6.18
2022-08-17T13:34:02.310Z,5.82
2022-08-17T13:37:48.695Z,5.38
2022-08-17T13:41:10.305Z,5.97
2022-08-17T13:44:44.306Z,6.72
2022-08-17T13:48:18.316Z,6.40
2022-08-17T13:51:43.300Z,6.90
2022-08-17T13:55:05.303Z,6.90
2022-08-17T13:58:34.360Z,6.70
2022-08-17T14:02:01.395Z,6.50
2022-08-17T14:05:22.319Z,6.30
2022-08-17T14:08:46.310Z,5.38
2022-08-17T14:12:10.345Z,6.13
2022-08-17T14:15:55.024Z,6.43
2022-08-17T14:19:16.318Z,5.00
2022-08-17T14:22:44.312Z,6.47
2022-08-17T14:26:05.328Z,5.18
2022-08-17T14:29:26.305Z,5.85
2022-08-17T14:32:50.336Z,5.68
2022-08-17T14:36:11.308Z,7.40
2022-08-17T14:39:32.360Z,5.75
2022-08-17T14:42:48.405Z,5.50
2022-08-17T14:46:02.341Z,4.85
2022-08-17T14:49:27.306Z,4.97
2022-08-17T14:52:48.308Z,5.35
2022-08-17T14:56:09.313Z,5.45
2022-08-17T14:59:30.343Z,4.80
2022-08-17T15:03:05.339Z,5.70
2022-08-17T15:06:26.308Z,5.00
2022-08-17T15:09:48.329Z,4.90
2022-08-17T15:13:12.315Z,5.78
2022-08-17T15:16:33.325Z,6.05
2022-08-17T15:19:54.365Z,5.68
2022-08-17T15:23:16.336Z,5.05
2022-08-17T15:26:37.314Z,6.72
2022-08-17T15:29:58.361Z,5.63
2022-08-17T15:33:19.335Z,4.75
2022-08-17T15:36:40.667Z,5.90
2022-08-17T15:40:10.347Z,5.40
2022-08-17T15:43:42.348Z,5.22
2022-08-17T15:47:03.355Z,4.88
2022-08-17T15:50:24.349Z,4.80
2022-08-17T15:53:45.337Z,4.47
2022-08-17T15:57:06.359Z,5.15
2022-08-17T16:00:27.340Z,4.78
2022-08-17T16:04:03.753Z,5.32
2022-08-17T16:07:29.363Z,6.22
2022-08-17T16:10:50.373Z,6.80
2022-08-17T16:14:11.326Z,6.50
2022-08-17T16:17:40.029Z,8.45
2022-08-17T16:21:01.358Z,5.32
2022-08-17T16:24:22.361Z,7.45
2022-08-17T16:27:43.447Z,7.35
2022-08-17T16:31:04.433Z,5.57
2022-08-17T16:34:25.347Z,7.13
2022-08-17T16:37:47.375Z,6.38
2022-08-17T16:41:08.333Z,6.35
2022-08-17T16:44:30.388Z,5.25
2022-08-17T16:47:51.397Z,5.28
2022-08-17T16:51:12.392Z,6.10
2022-08-17T16:54:33.379Z,6.65
2022-08-17T16:57:54.401Z,5.82
2022-08-17T17:01:15.388Z,6.32
2022-08-17T17:04:46.371Z,5.63
2022-08-17T17:08:32.364Z,5.85
2022-08-17T17:12:08.367Z,6.28
2022-08-17T17:15:30.360Z,5.93
2022-08-17T17:19:05.359Z,7.43
2022-08-17T17:22:26.394Z,6.30
2022-08-17T17:25:54.365Z,6.40
2022-08-17T17:29:48.492Z,6.53
2022-08-17T17:33:46.404Z,6.40
2022-08-17T17:37:11.365Z,6.78
2022-08-17T17:40:37.413Z,7.53
2022-08-17T17:44:01.809Z,6.88
2022-08-17T17:47:17.410Z,6.50
2022-08-17T17:50:48.442Z,6.10
2022-08-17T17:54:18.406Z,6.15
2022-08-17T17:58:01.384Z,7.28
2022-08-17T18:01:34.469Z,6.07
2022-08-17T18:05:06.418Z,6.38
2022-08-17T18:08:40.407Z,7.15
2022-08-17T18:12:05.394Z,6.05
2022-08-17T18:15:43.394Z,6.75
2022-08-17T18:19:06.133Z,6.38
2022-08-17T18:22:34.392Z,6.03
2022-08-17T18:26:07.435Z,6.10
2022-08-17T18:30:04.574Z,6.32
2022-08-17T18:33:36.401Z,6.45
2022-08-17T18:36:57.381Z,7.28
2022-08-17T18:40:30.491Z,6.80
2022-08-17T18:43:53.334Z,5.82
2022-08-17T18:47:37.388Z,8.82
2022-08-17T18:50:59.389Z,6.25
2022-08-17T18:54:28.388Z,6.78
2022-08-17T18:57:56.407Z,7.32
2022-08-17T19:01:46.983Z,6.90
2022-08-17T19:05:15.544Z,6.60
2022-08-17T19:08:42.434Z,6.00
2022-08-17T19:12:03.421Z,6.70
2022-08-17T19:15:27.399Z,6.78
2022-08-17T19:18:57.405Z,6.43
2022-08-17T19:22:33.386Z,6.85
2022-08-17T19:26:01.412Z,5.35
2022-08-17T19:29:28.538Z,6.53
2022-08-17T19:32:50.467Z,6.25
2022-08-17T19:36:14.429Z,6.93
2022-08-17T19:39:38.811Z,7.20
2022-08-17T19:43:15.411Z,6.47
2022-08-17T19:46:48.688Z,6.13
2022-08-17T19:50:30.491Z,6.15
2022-08-17T19:54:07.523Z,7.47
2022-08-17T19:57:57.557Z,7.45
2022-08-17T20:01:22.500Z,8.20
2022-08-17T20:04:43.449Z,8.18
2022-08-17T20:08:10.443Z,9.30
2022-08-17T20:15:09.423Z,8.77
2022-08-17T20:18:56.452Z,7.90
2022-08-17T20:22:31.434Z,6.85
2022-08-17T20:26:05.467Z,6.38
2022-08-17T20:29:37.182Z,6.53
2022-08-17T20:33:07.463Z,7.15
2022-08-17T20:36:38.470Z,6.43
2022-08-17T20:40:19.553Z,6.40
2022-08-17T20:43:46.463Z,7.22
2022-08-17T20:47:18.421Z,7.30
2022-08-17T20:50:39.429Z,7.35
2022-08-17T20:54:00.433Z,6.60
2022-08-17T20:57:22.426Z,6.57
2022-08-17T21:00:44.428Z,7.18
2022-08-17T21:04:06.444Z,7.22
2022-08-17T21:07:49.409Z,7.13
2022-08-17T21:11:12.468Z,7.45
2022-08-17T21:14:38.457Z,7.78
2022-08-17T21:18:14.433Z,6.78
2022-08-17T21:21:56.444Z,7.20
2022-08-17T21:25:39.451Z,6.60
2022-08-17T21:29:29.833Z,6.05
2022-08-17T21:32:53.450Z,6.18
2022-08-17T21:36:16.454Z,6.38
2022-08-17T21:39:46.480Z,7.10
2022-08-17T21:43:17.450Z,7.10
2022-08-17T21:46:46.650Z,6.25
2022-08-17T21:50:11.457Z,6.28
2022-08-17T21:53:41.443Z,6.07
2022-08-17T21:57:02.452Z,6.35
2022-08-17T22:00:24.477Z,6.10
2022-08-17T22:03:45.465Z,6.78
2022-08-17T22:07:07.500Z,6.57
2022-08-17T22:10:45.497Z,7.10
2022-08-17T22:14:06.486Z,6.97
2022-08-17T22:17:31.458Z,7.18
2022-08-17T22:20:52.487Z,7.05
2022-08-17T22:24:20.458Z,7.00
2022-08-17T22:28:10.530Z,6.95
2022-08-17T22:31:37.486Z,6.75
2022-08-17T22:34:58.463Z,6.88
2022-08-17T22:38:34.473Z,7.45
2022-08-17T22:42:01.468Z,6.90
2022-08-17T22:45:22.457Z,7.32
2022-08-17T22:48:43.464Z,7.53
2022-08-17T22:52:13.480Z,7.22
2022-08-17T22:55:52.477Z,8.18
2022-08-17T22:59:29.495Z,9.18
2022-08-17T23:02:55.288Z,7.63
2022-08-17T23:06:23.504Z,8.05
2022-08-17T23:09:44.478Z,8.52
2022-08-17T23:13:06.496Z,7.68
2022-08-17T23:16:28.492Z,7.90
2022-08-17T23:19:49.485Z,7.50
2022-08-17T23:23:11.505Z,6.60
2022-08-17T23:26:34.495Z,6.88
2022-08-17T23:29:56.491Z,7.50
2022-08-17T23:33:20.496Z,7.28
2022-08-17T23:36:41.493Z,7.05
2022-08-17T23:40:02.533Z,7.35
2022-08-17T23:43:28.213Z,6.60
2022-08-17T23:46:50.515Z,6.25
2022-08-17T23:50:12.475Z,7.13
2022-08-17T23:53:33.535Z,6.90
2022-08-17T23:56:54.506Z,6.68
